LJMB/MBX METAR and TAF weather

Enter ICAO airport designator
Station Type Date Time Source
LJMB METAR 2020/01/28 21:00 UTC NOAA

LJMB 282100Z 07005KT 9999 FEW013 BKN043 04/02 Q1005


Station Type Date Time Source
LJMB Decoded METAR 2020/01/28 21:00 UTC NOAA

Maribor / Slivnica, Slovenia (LJMB) 46-29N 015-41E 265M
Jan 28, 2020 - 04:00 PM EST / 2020.01.28 2100 UTC
Wind: from the ENE (070 degrees) at 6 MPH (5 KT):0
Visibility: greater than 7 mile(s):0
Sky conditions: mostly cloudy
Temperature: 39 F (4 C)
Dew Point: 35 F (2 C)
Relative Humidity: 86%
Pressure (altimeter): 29.68 in. Hg (1005 hPa)
ob: LJMB 282100Z 07005KT 9999 FEW013 BKN043 04/02 Q1005
cycle: 21

Station Type Date Time Source
LJMB TAF 2020/01/28 21:08 UTC NOAA

TAF LJMB 282000Z 2821/2921 15005KT 9999 FEW010 BKN035
BECMG 2821/2824 VRB02KT FEW010 SCT070
TEMPO 2900/2908 0300 FZFG VV001

Example: see airport list